Time;durP1;ratioP1;P1;durP2;ratioP2;P2;SDS_P1;SDS_P2;PMS_P1;PMS_P2;Temp;Humidity;BMP_temperature;BMP_pressure;BME280_temperature;BME280_humidity;BME280_pressure;Samples;Min_cycle;Max_cycle;Signal;HPM_P1;HPM_P2
2021/12/09 00:00:07;;;;;;;11.45;3.95;;;4.00;99.90;;;;;;5054622;28;20043;-84
2021/12/09 00:02:33;;;;;;;11.88;4.15;;;4.00;99.90;;;;;;5054743;28;20044;-85
2021/12/09 00:04:59;;;;;;;12.50;4.53;;;4.00;99.90;;;;;;5053508;28;20052;-85
2021/12/09 00:07:25;;;;;;;10.45;4.38;;;4.00;99.90;;;;;;5054036;28;20032;-85
2021/12/09 00:09:51;;;;;;;9.68;4.30;;;4.00;99.90;;;;;;5054696;28;20497;-85
2021/12/09 00:12:17;;;;;;;11.57;4.05;;;4.00;99.90;;;;;;5054813;28;20447;-85
2021/12/09 00:14:43;;;;;;;15.73;4.97;;;4.00;99.90;;;;;;5054044;28;20068;-85
2021/12/09 00:17:10;;;;;;;12.75;4.25;;;4.00;99.90;;;;;;5054145;28;20109;-85
2021/12/09 00:19:38;;;;;;;11.80;4.15;;;4.00;99.90;;;;;;5054227;28;20133;-84
2021/12/09 00:22:09;;;;;;;13.13;4.43;;;4.00;99.90;;;;;;5054372;28;20040;-84
2021/12/09 00:24:35;;;;;;;12.27;4.95;;;4.00;99.90;;;;;;5053727;28;20040;-85
2021/12/09 00:27:01;;;;;;;9.57;4.13;;;4.00;99.90;;;;;;5054269;28;20123;-84
2021/12/09 00:29:26;;;;;;;12.73;3.88;;;3.90;99.90;;;;;;5037293;28;20040;-84
2021/12/09 00:31:52;;;;;;;12.27;3.60;;;3.90;99.90;;;;;;5053910;28;20090;-85
2021/12/09 00:34:30;;;;;;;8.52;3.97;;;3.90;99.90;;;;;;5037247;28;20143;-85
2021/12/09 00:37:00;;;;;;;15.88;4.85;;;3.90;99.90;;;;;;5053913;28;20058;-85
2021/12/09 00:39:26;;;;;;;11.88;4.20;;;3.90;99.90;;;;;;5037336;28;20477;-85
2021/12/09 00:41:52;;;;;;;8.57;3.88;;;3.90;99.90;;;;;;5037331;28;20482;-85
2021/12/09 00:44:18;;;;;;;11.90;4.25;;;3.90;99.90;;;;;;5036901;28;20047;-85
2021/12/09 00:46:44;;;;;;;11.25;4.28;;;3.90;99.90;;;;;;5053253;28;20127;-85
2021/12/09 00:49:09;;;;;;;11.95;4.35;;;3.90;99.90;;;;;;5037082;28;20040;-85
2021/12/09 00:51:36;;;;;;;13.18;4.45;;;3.90;99.90;;;;;;5053428;28;20048;-85
2021/12/09 00:54:03;;;;;;;16.20;4.93;;;3.80;99.90;;;;;;5053152;28;20057;-85
2021/12/09 00:56:29;;;;;;;12.23;4.35;;;3.80;99.90;;;;;;5053500;28;20154;-85
2021/12/09 00:58:55;;;;;;;10.52;4.22;;;3.80;99.90;;;;;;5037242;28;20055;-85
2021/12/09 01:01:22;;;;;;;13.40;5.05;;;3.80;99.90;;;;;;5053597;28;20039;-84
2021/12/09 01:03:48;;;;;;;12.85;4.65;;;3.80;99.90;;;;;;5052300;28;20056;-84
2021/12/09 01:06:14;;;;;;;12.43;5.05;;;3.80;99.90;;;;;;5052958;28;20045;-85
2021/12/09 01:08:41;;;;;;;13.52;5.32;;;3.70;99.90;;;;;;5053204;28;20036;-85
2021/12/09 01:11:06;;;;;;;8.95;4.38;;;3.80;99.90;;;;;;5036851;28;20040;-84
2021/12/09 01:13:32;;;;;;;13.23;5.13;;;3.70;99.90;;;;;;5052905;28;20044;-84
2021/12/09 01:15:58;;;;;;;12.32;4.60;;;3.70;99.90;;;;;;5050287;28;20719;-84
2021/12/09 01:18:24;;;;;;;9.35;4.43;;;3.60;99.90;;;;;;5034288;28;20531;-84
2021/12/09 01:20:50;;;;;;;11.23;4.60;;;3.60;99.90;;;;;;5052691;28;20063;-84
2021/12/09 01:23:16;;;;;;;14.32;5.07;;;3.60;99.90;;;;;;5035746;28;20127;-85
2021/12/09 01:25:43;;;;;;;11.15;4.53;;;3.50;99.90;;;;;;5052838;28;20156;-84
2021/12/09 01:28:17;;;;;;;11.00;4.38;;;3.50;99.90;;;;;;5036287;28;20039;-84
2021/12/09 01:30:45;;;;;;;14.02;4.63;;;3.50;99.90;;;;;;5036461;28;20052;-84
2021/12/09 01:33:11;;;;;;;13.20;4.28;;;3.50;99.90;;;;;;5053022;28;20044;-85
2021/12/09 01:35:38;;;;;;;12.38;4.45;;;3.40;99.90;;;;;;5052675;28;20043;-85
2021/12/09 01:38:11;;;;;;;11.45;4.85;;;3.40;99.90;;;;;;5052926;28;20124;-84
2021/12/09 01:40:38;;;;;;;10.68;4.78;;;3.40;99.90;;;;;;5052840;28;20044;-85
2021/12/09 01:43:04;;;;;;;13.38;5.20;;;3.40;99.90;;;;;;5052417;28;20520;-85
2021/12/09 01:45:29;;;;;;;18.38;5.32;;;3.40;99.90;;;;;;5069886;28;20048;-84
2021/12/09 01:47:55;;;;;;;12.18;4.70;;;3.40;99.90;;;;;;5036050;28;20067;-84
2021/12/09 01:50:22;;;;;;;15.23;5.53;;;3.40;99.90;;;;;;5052775;28;20041;-84
2021/12/09 01:52:49;;;;;;;15.23;6.22;;;3.40;99.90;;;;;;5052459;28;20048;-84
2021/12/09 01:55:16;;;;;;;12.07;5.60;;;3.40;99.90;;;;;;5035829;28;20043;-84
2021/12/09 01:57:45;;;;;;;13.18;5.70;;;3.40;99.90;;;;;;5035878;28;20079;-84
2021/12/09 02:00:16;;;;;;;13.07;5.45;;;3.40;99.90;;;;;;5052374;28;20059;-85
2021/12/09 02:02:43;;;;;;;12.70;6.13;;;3.40;99.90;;;;;;5052439;28;20666;-85
2021/12/09 02:05:11;;;;;;;10.95;5.10;;;3.40;99.90;;;;;;5064639;28;20635;-84
2021/12/09 02:07:37;;;;;;;13.15;6.00;;;3.40;99.90;;;;;;5072175;28;20040;-84
2021/12/09 02:10:12;;;;;;;15.68;5.85;;;3.40;99.90;;;;;;5072680;28;20042;-84
2021/12/09 02:12:38;;;;;;;12.68;6.13;;;3.40;99.90;;;;;;5055808;28;20129;-85
2021/12/09 02:15:04;;;;;;;13.13;5.68;;;3.30;99.90;;;;;;5055621;28;20074;-84
2021/12/09 02:17:32;;;;;;;11.68;5.63;;;3.40;99.90;;;;;;5073164;28;20035;-85
2021/12/09 02:20:00;;;;;;;12.63;6.00;;;3.30;99.90;;;;;;5056073;28;20032;-85
2021/12/09 02:22:28;;;;;;;13.40;5.50;;;3.30;99.90;;;;;;5072290;28;20497;-84
2021/12/09 02:24:54;;;;;;;14.77;6.55;;;3.30;99.90;;;;;;5050958;28;20048;-84
2021/12/09 02:27:22;;;;;;;14.05;6.45;;;3.30;99.90;;;;;;5052033;28;20553;-84
2021/12/09 02:29:49;;;;;;;14.35;6.25;;;3.30;99.90;;;;;;5052240;28;20050;-84
2021/12/09 02:32:14;;;;;;;13.60;6.18;;;3.30;99.90;;;;;;5039642;28;20040;-85
2021/12/09 02:34:40;;;;;;;12.75;5.95;;;3.30;99.90;;;;;;5039225;28;20060;-84
2021/12/09 02:37:08;;;;;;;14.85;6.40;;;3.30;99.90;;;;;;5054044;28;20044;-85
2021/12/09 02:39:34;;;;;;;13.55;6.38;;;3.30;99.90;;;;;;5055903;28;20051;-85
2021/12/09 02:42:00;;;;;;;14.23;6.30;;;3.30;99.90;;;;;;5055720;28;20115;-85
2021/12/09 02:44:27;;;;;;;14.20;6.22;;;3.20;99.90;;;;;;5055570;28;20048;-85
2021/12/09 02:46:55;;;;;;;14.93;6.50;;;3.20;99.90;;;;;;5055319;28;20044;-85
2021/12/09 02:49:24;;;;;;;11.23;5.60;;;3.20;99.90;;;;;;5039275;28;20043;-85
2021/12/09 02:51:51;;;;;;;13.63;5.72;;;3.20;99.90;;;;;;5056019;28;20617;-85
2021/12/09 02:54:19;;;;;;;15.13;7.32;;;3.20;99.90;;;;;;5055606;28;20048;-84
2021/12/09 02:56:47;;;;;;;13.77;6.07;;;3.20;99.90;;;;;;5056171;28;20041;-84
2021/12/09 02:59:13;;;;;;;15.32;6.75;;;3.20;99.90;;;;;;5055354;28;20044;-85
2021/12/09 03:01:54;;;;;;;14.07;6.35;;;3.20;99.90;;;;;;5056024;28;20037;-84
2021/12/09 03:04:20;;;;;;;14.90;6.70;;;3.20;99.90;;;;;;5038027;28;20089;-84
2021/12/09 03:06:46;;;;;;;15.18;7.03;;;3.20;99.90;;;;;;5038090;28;20134;-84
2021/12/09 03:09:17;;;;;;;14.75;6.57;;;3.20;99.90;;;;;;5055699;28;20063;-84
2021/12/09 03:11:47;;;;;;;11.77;5.93;;;3.20;99.90;;;;;;5055758;28;20045;-84
2021/12/09 03:14:12;;;;;;;12.80;6.07;;;3.20;99.90;;;;;;5038018;28;20044;-84
2021/12/09 03:16:39;;;;;;;14.85;6.72;;;3.20;99.90;;;;;;5055936;28;20033;-85
2021/12/09 03:19:07;;;;;;;13.80;6.30;;;3.20;99.90;;;;;;5039018;28;20070;-84
2021/12/09 03:21:42;;;;;;;18.58;6.88;;;3.20;99.90;;;;;;5038630;28;20044;-84
2021/12/09 03:24:11;;;;;;;14.52;6.88;;;3.10;99.90;;;;;;5055279;28;20063;-84
2021/12/09 03:26:42;;;;;;;12.18;6.30;;;3.10;99.90;;;;;;5054851;28;20048;-84
2021/12/09 03:29:11;;;;;;;15.63;7.13;;;3.10;99.90;;;;;;5055128;28;20584;-84
2021/12/09 03:31:42;;;;;;;13.88;6.65;;;3.10;99.90;;;;;;5038212;28;20040;-84
2021/12/09 03:34:09;;;;;;;14.77;7.10;;;3.10;99.90;;;;;;5038078;28;20043;-84
2021/12/09 03:36:35;;;;;;;13.30;7.00;;;3.10;99.90;;;;;;5055244;28;20063;-85
2021/12/09 03:39:09;;;;;;;14.32;6.43;;;3.10;99.90;;;;;;5055210;28;20402;-85
2021/12/09 03:41:35;;;;;;;14.63;6.88;;;3.10;99.90;;;;;;5054071;28;20082;-85
2021/12/09 03:44:00;;;;;;;11.65;6.28;;;3.10;99.90;;;;;;5054570;28;20032;-84
2021/12/09 03:46:26;;;;;;;18.55;7.38;;;3.10;99.90;;;;;;5038246;28;20405;-84
2021/12/09 03:48:52;;;;;;;16.00;7.07;;;3.00;99.90;;;;;;5038323;28;20044;-84
2021/12/09 03:51:17;;;;;;;16.48;6.90;;;3.00;99.90;;;;;;5054444;28;20410;-84
2021/12/09 03:53:43;;;;;;;11.52;6.70;;;3.00;99.90;;;;;;5054338;28;20082;-84
2021/12/09 03:56:09;;;;;;;14.43;6.95;;;3.00;99.90;;;;;;5038060;28;20033;-84
2021/12/09 03:58:34;;;;;;;13.00;7.25;;;3.00;99.90;;;;;;5054161;28;20071;-84
2021/12/09 04:01:00;;;;;;;16.20;7.13;;;3.00;99.90;;;;;;5054786;28;20037;-84
2021/12/09 04:03:25;;;;;;;15.57;6.93;;;3.00;99.90;;;;;;5054198;28;20560;-84
2021/12/09 04:05:51;;;;;;;14.52;7.13;;;3.00;99.90;;;;;;5056372;28;20047;-84
2021/12/09 04:08:17;;;;;;;15.70;7.32;;;3.00;99.90;;;;;;5074376;28;20123;-84
2021/12/09 04:10:44;;;;;;;15.32;7.25;;;3.00;99.90;;;;;;5058350;28;20488;-84
2021/12/09 04:13:10;;;;;;;14.05;7.93;;;3.00;99.90;;;;;;5074077;28;20229;-84
2021/12/09 04:15:36;;;;;;;13.45;7.47;;;3.00;99.90;;;;;;5074483;28;20114;-84
2021/12/09 04:18:03;;;;;;;15.75;7.97;;;3.00;99.90;;;;;;5074614;28;20124;-85
2021/12/09 04:20:29;;;;;;;20.33;7.28;;;2.90;99.90;;;;;;5057575;28;20177;-84
2021/12/09 04:22:56;;;;;;;18.85;6.85;;;2.90;99.90;;;;;;5057940;28;20046;-84
2021/12/09 04:25:23;;;;;;;12.90;6.68;;;2.90;99.90;;;;;;5073786;28;20036;-84
2021/12/09 04:27:51;;;;;;;13.18;6.30;;;2.90;99.90;;;;;;5073506;28;20386;-84
2021/12/09 04:30:17;;;;;;;15.23;7.80;;;2.80;99.90;;;;;;5074071;28;20051;-84
2021/12/09 04:32:44;;;;;;;16.95;7.00;;;2.80;99.90;;;;;;5073753;28;20044;-84
2021/12/09 04:35:12;;;;;;;15.60;6.85;;;2.80;99.90;;;;;;5073317;28;20128;-84
2021/12/09 04:37:38;;;;;;;15.55;7.32;;;2.80;99.90;;;;;;5073601;28;20075;-84
2021/12/09 04:40:07;;;;;;;13.48;6.90;;;2.80;99.90;;;;;;5057047;28;20519;-84
2021/12/09 04:42:33;;;;;;;16.50;7.18;;;2.80;99.90;;;;;;5074071;28;20527;-84
2021/12/09 04:44:58;;;;;;;16.05;7.57;;;2.80;99.90;;;;;;5073803;28;20032;-84
2021/12/09 04:47:24;;;;;;;14.75;7.85;;;2.80;99.90;;;;;;5073396;28;20051;-84
2021/12/09 04:49:50;;;;;;;17.02;7.65;;;2.80;99.90;;;;;;5057239;28;20051;-84
2021/12/09 04:52:16;;;;;;;14.35;7.20;;;2.80;99.90;;;;;;5074100;28;20043;-84
2021/12/09 04:54:41;;;;;;;14.15;7.30;;;2.80;99.90;;;;;;5056540;28;20043;-84
2021/12/09 04:57:12;;;;;;;16.00;7.10;;;2.80;99.90;;;;;;5073527;28;20409;-84
2021/12/09 04:59:39;;;;;;;15.50;7.03;;;2.80;99.90;;;;;;5057045;28;20085;-84
2021/12/09 05:02:10;;;;;;;14.00;7.72;;;2.80;99.90;;;;;;5073529;28;20412;-84
2021/12/09 05:04:36;;;;;;;17.25;8.05;;;2.80;99.90;;;;;;5063579;28;20036;-83
2021/12/09 05:07:01;;;;;;;14.48;7.22;;;2.80;99.90;;;;;;5036840;28;20043;-84
2021/12/09 05:09:29;;;;;;;13.80;6.65;;;2.70;99.90;;;;;;5053085;28;20033;-84
2021/12/09 05:11:54;;;;;;;13.40;6.93;;;2.70;99.90;;;;;;5053565;28;20047;-84
2021/12/09 05:14:22;;;;;;;13.38;6.75;;;2.60;99.90;;;;;;5053134;28;20469;-84
2021/12/09 05:16:52;;;;;;;15.93;6.85;;;2.50;99.90;;;;;;5036406;28;20086;-84
2021/12/09 05:19:19;;;;;;;17.10;7.82;;;2.50;99.90;;;;;;5036522;28;20115;-84
2021/12/09 05:21:45;;;;;;;13.30;6.95;;;2.40;99.90;;;;;;5053109;28;20450;-84
2021/12/09 05:24:13;;;;;;;13.73;7.65;;;2.40;99.90;;;;;;5053078;28;20091;-84
2021/12/09 05:26:47;;;;;;;14.52;7.25;;;2.40;99.90;;;;;;5036398;28;20071;-84
2021/12/09 05:29:14;;;;;;;12.70;6.88;;;2.40;99.90;;;;;;5052929;28;20037;-84
2021/12/09 05:34:25;;;;;;;15.30;7.63;;;2.30;99.90;;;;;;5049416;28;20052;-84
2021/12/09 05:36:52;;;;;;;16.65;7.80;;;2.30;99.90;;;;;;5049528;28;20170;-84
2021/12/09 05:39:19;;;;;;;14.38;7.05;;;2.30;99.90;;;;;;5049571;28;20041;-84
2021/12/09 05:41:47;;;;;;;17.10;7.80;;;2.30;99.90;;;;;;5049950;28;20029;-84
2021/12/09 05:44:15;;;;;;;15.18;7.97;;;2.30;99.90;;;;;;5049302;28;20037;-85
2021/12/09 05:46:46;;;;;;;18.13;8.20;;;2.30;99.90;;;;;;5049463;28;20079;-84
2021/12/09 05:49:14;;;;;;;17.27;8.63;;;2.30;99.90;;;;;;5049310;28;20049;-84
2021/12/09 05:51:41;;;;;;;16.38;7.93;;;2.20;99.90;;;;;;5049225;28;20044;-84
2021/12/09 05:54:07;;;;;;;16.42;7.88;;;2.20;99.90;;;;;;5048553;28;20037;-84
2021/12/09 05:56:33;;;;;;;15.20;8.00;;;2.20;99.90;;;;;;5049262;28;20033;-84
2021/12/09 05:58:59;;;;;;;17.45;7.85;;;2.20;99.90;;;;;;5048992;28;20654;-84
2021/12/09 06:01:25;;;;;;;19.20;9.23;;;2.20;99.90;;;;;;5049549;28;20029;-84
2021/12/09 06:03:50;;;;;;;16.40;8.38;;;2.30;99.90;;;;;;5032472;28;20448;-84
2021/12/09 06:06:17;;;;;;;20.63;8.85;;;2.30;99.90;;;;;;5035813;28;20371;-84
2021/12/09 06:08:42;;;;;;;19.15;8.85;;;2.30;99.90;;;;;;5053798;28;20041;-84
2021/12/09 06:11:10;;;;;;;16.33;7.55;;;2.30;99.90;;;;;;5032473;28;20498;-85
2021/12/09 06:13:37;;;;;;;16.08;7.78;;;2.30;99.90;;;;;;5053245;28;20705;-84
2021/12/09 06:16:08;;;;;;;17.08;7.90;;;2.30;99.90;;;;;;5035826;28;20040;-85
2021/12/09 06:18:35;;;;;;;15.43;7.40;;;2.20;99.90;;;;;;5052658;28;20540;-84
2021/12/09 06:21:00;;;;;;;13.52;7.65;;;2.30;99.90;;;;;;5052500;28;20072;-83
2021/12/09 06:23:26;;;;;;;18.30;8.02;;;2.30;99.90;;;;;;5052166;28;20072;-84
2021/12/09 06:25:52;;;;;;;14.77;7.68;;;2.30;99.90;;;;;;5052536;28;20041;-85
2021/12/09 06:28:18;;;;;;;19.95;8.52;;;2.20;99.90;;;;;;5052958;28;20041;-85
2021/12/09 06:30:45;;;;;;;15.55;7.57;;;2.20;99.90;;;;;;5052397;28;20421;-84
2021/12/09 06:33:11;;;;;;;15.45;7.75;;;2.20;99.90;;;;;;5050678;28;20086;-84
2021/12/09 06:35:37;;;;;;;13.93;7.53;;;2.20;99.90;;;;;;5051102;28;20033;-84
2021/12/09 06:38:04;;;;;;;18.00;7.78;;;2.20;99.90;;;;;;5052618;28;20041;-84
2021/12/09 06:40:31;;;;;;;17.02;7.05;;;2.20;99.90;;;;;;5052463;28;20127;-84
2021/12/09 06:42:57;;;;;;;17.63;8.25;;;2.20;99.90;;;;;;5051877;28;20086;-84
2021/12/09 06:45:23;;;;;;;17.05;8.05;;;2.20;99.90;;;;;;5051766;28;20037;-84
2021/12/09 06:47:50;;;;;;;13.68;7.13;;;2.20;99.90;;;;;;5035262;28;20025;-83
2021/12/09 06:50:18;;;;;;;14.82;7.65;;;2.20;99.90;;;;;;5052641;28;20043;-85
2021/12/09 06:52:44;;;;;;;15.82;8.00;;;2.20;99.90;;;;;;5036149;28;20441;-85
2021/12/09 06:55:13;;;;;;;17.92;8.05;;;2.20;99.90;;;;;;5051179;28;20045;-85
2021/12/09 06:57:39;;;;;;;15.88;7.82;;;2.20;99.90;;;;;;5035822;28;20041;-84
2021/12/09 07:00:08;;;;;;;15.48;8.48;;;2.20;99.90;;;;;;5052053;28;20099;-84
2021/12/09 07:02:33;;;;;;;14.35;7.60;;;2.30;99.90;;;;;;5050462;28;20548;-84
2021/12/09 07:04:59;;;;;;;14.57;7.72;;;2.20;99.90;;;;;;5037464;28;20037;-85
2021/12/09 07:07:24;;;;;;;18.38;8.40;;;2.20;99.90;;;;;;5055412;28;20036;-84
2021/12/09 07:09:50;;;;;;;16.25;7.93;;;2.20;99.90;;;;;;5038660;28;20417;-84
2021/12/09 07:12:16;;;;;;;14.50;7.97;;;2.20;99.90;;;;;;5055200;28;20044;-85
2021/12/09 07:14:43;;;;;;;19.02;8.00;;;2.20;99.90;;;;;;5055004;28;20102;-84
2021/12/09 07:17:09;;;;;;;16.40;7.60;;;2.20;99.90;;;;;;5054723;28;20047;-84
2021/12/09 07:19:35;;;;;;;15.20;7.32;;;2.20;99.90;;;;;;5055508;28;20032;-83
2021/12/09 07:22:02;;;;;;;17.77;8.23;;;2.20;99.90;;;;;;5055219;28;20043;-83
2021/12/09 07:24:27;;;;;;;17.33;7.78;;;2.20;99.90;;;;;;5038319;28;20075;-83
2021/12/09 07:26:53;;;;;;;12.82;7.55;;;2.20;99.90;;;;;;5055365;28;20506;-84
2021/12/09 07:29:19;;;;;;;16.52;7.22;;;2.20;99.90;;;;;;5055668;28;20044;-83
2021/12/09 07:31:45;;;;;;;14.65;7.10;;;2.20;99.90;;;;;;5045264;28;20042;-84
2021/12/09 07:34:11;;;;;;;20.23;8.50;;;2.20;99.90;;;;;;5058753;28;20040;-84
2021/12/09 07:36:36;;;;;;;15.57;7.70;;;2.20;99.90;;;;;;5076033;28;20036;-83
2021/12/09 07:39:03;;;;;;;16.70;7.10;;;2.20;99.90;;;;;;5074608;28;20552;-84
2021/12/09 07:41:29;;;;;;;15.23;7.70;;;2.20;99.90;;;;;;5074623;28;20036;-84
2021/12/09 07:43:54;;;;;;;19.55;7.40;;;2.20;99.90;;;;;;5054529;28;20036;-84
2021/12/09 07:46:20;;;;;;;15.63;7.25;;;2.20;99.90;;;;;;5037559;28;20759;-84
2021/12/09 07:48:46;;;;;;;14.57;7.22;;;2.20;99.90;;;;;;5037670;28;20048;-85
2021/12/09 07:51:12;;;;;;;13.77;6.30;;;2.20;99.90;;;;;;5053951;28;20040;-84
2021/12/09 07:53:37;;;;;;;15.05;6.95;;;2.20;99.90;;;;;;5053427;28;20521;-84
2021/12/09 07:56:03;;;;;;;19.33;7.65;;;2.20;99.90;;;;;;5054841;28;20032;-84
2021/12/09 07:58:32;;;;;;;18.35;7.97;;;2.20;99.90;;;;;;5054286;28;20032;-84
2021/12/09 08:00:58;;;;;;;16.73;7.75;;;2.20;99.90;;;;;;5037569;28;20096;-84
2021/12/09 08:03:24;;;;;;;16.08;7.85;;;2.20;99.90;;;;;;5053629;28;20040;-84
2021/12/09 08:05:49;;;;;;;14.80;7.32;;;2.20;99.90;;;;;;5036919;28;20047;-84
2021/12/09 08:08:15;;;;;;;12.75;6.15;;;2.20;99.90;;;;;;5053620;28;20085;-84
2021/12/09 08:10:41;;;;;;;16.83;7.32;;;2.20;99.90;;;;;;5054300;28;20071;-84
2021/12/09 08:13:08;;;;;;;14.10;6.97;;;2.20;99.90;;;;;;5053900;28;20075;-83
2021/12/09 08:15:38;;;;;;;15.75;7.00;;;2.20;99.90;;;;;;5053571;28;20036;-84
2021/12/09 08:18:27;;;;;;;14.40;7.22;;;2.30;99.90;;;;;;5053605;28;20049;-84
2021/12/09 08:20:57;;;;;;;18.95;6.80;;;2.30;99.90;;;;;;5054186;28;20062;-84
2021/12/09 08:23:23;;;;;;;15.52;6.35;;;2.30;99.90;;;;;;5053010;28;20036;-84
2021/12/09 08:25:49;;;;;;;13.32;6.15;;;2.30;99.90;;;;;;5037751;28;20044;-84
2021/12/09 08:28:15;;;;;;;23.90;6.70;;;2.30;99.90;;;;;;5053315;28;20043;-84
2021/12/09 08:30:42;;;;;;;17.67;7.25;;;2.40;99.90;;;;;;5053714;28;20040;-84
2021/12/09 08:33:08;;;;;;;15.88;6.60;;;2.40;99.90;;;;;;5037130;28;20040;-84
2021/12/09 08:35:35;;;;;;;15.73;6.72;;;2.40;99.90;;;;;;5053309;28;20044;-84
2021/12/09 08:38:02;;;;;;;16.75;6.25;;;2.40;99.90;;;;;;5053350;28;20097;-84
2021/12/09 08:40:28;;;;;;;12.38;6.85;;;2.50;99.90;;;;;;5054231;28;20125;-85
2021/12/09 08:42:54;;;;;;;15.55;7.43;;;2.50;99.90;;;;;;5053785;28;20079;-85
2021/12/09 08:45:21;;;;;;;15.10;6.57;;;2.50;99.90;;;;;;5036352;28;20549;-84
2021/12/09 08:47:47;;;;;;;16.17;7.30;;;2.50;99.90;;;;;;5053528;28;20040;-84
2021/12/09 08:50:18;;;;;;;15.45;7.28;;;2.60;99.90;;;;;;5053831;28;20163;-84
2021/12/09 08:52:45;;;;;;;16.13;6.28;;;2.60;99.90;;;;;;5036917;28;20040;-84
2021/12/09 08:55:11;;;;;;;13.68;6.22;;;2.60;99.90;;;;;;5053337;28;20041;-84
2021/12/09 08:57:37;;;;;;;16.58;6.80;;;2.60;99.90;;;;;;5053410;28;20394;-84
2021/12/09 09:00:09;;;;;;;15.48;7.18;;;2.60;99.90;;;;;;5053523;28;20040;-84
2021/12/09 09:02:38;;;;;;;19.43;6.53;;;2.60;99.90;;;;;;5029893;28;20036;-84
2021/12/09 09:05:07;;;;;;;13.35;6.63;;;2.70;99.90;;;;;;5047127;28;20283;-84
2021/12/09 09:07:32;;;;;;;15.65;6.38;;;2.70;99.90;;;;;;5023579;28;20120;-84
2021/12/09 09:09:58;;;;;;;15.35;6.40;;;2.70;99.90;;;;;;5041975;28;20048;-85
2021/12/09 09:12:23;;;;;;;13.48;6.43;;;2.70;99.90;;;;;;5043148;28;20072;-85
2021/12/09 09:14:49;;;;;;;16.35;6.18;;;2.70;99.90;;;;;;5042154;28;20048;-84
2021/12/09 09:17:15;;;;;;;17.33;6.45;;;2.80;99.90;;;;;;5057533;28;20072;-84
2021/12/09 09:19:40;;;;;;;15.32;6.75;;;2.90;99.90;;;;;;5042302;28;20029;-84
2021/12/09 09:22:06;;;;;;;13.30;6.22;;;2.90;99.90;;;;;;5042143;28;20037;-84
2021/12/09 09:24:32;;;;;;;12.73;5.63;;;2.90;99.90;;;;;;5040663;28;20040;-84
2021/12/09 09:26:58;;;;;;;14.05;5.75;;;3.00;99.90;;;;;;5042014;28;20126;-85
2021/12/09 09:29:25;;;;;;;13.02;6.40;;;3.00;99.90;;;;;;5016046;28;20125;-84
2021/12/09 09:31:52;;;;;;;12.10;5.82;;;3.00;99.90;;;;;;5032914;28;20640;-84
2021/12/09 09:34:17;;;;;;;15.82;6.65;;;3.10;99.90;;;;;;5032365;28;20045;-84
2021/12/09 09:36:44;;;;;;;14.02;5.78;;;3.10;99.90;;;;;;5033060;28;20107;-84
2021/12/09 09:39:21;;;;;;;17.55;6.35;;;3.10;99.90;;;;;;5031967;28;20045;-85
2021/12/09 09:42:00;;;;;;;12.45;5.50;;;3.20;99.90;;;;;;5034948;28;20493;-84
2021/12/09 09:44:33;;;;;;;16.48;5.90;;;3.20;99.90;;;;;;5032898;28;20044;-85
2021/12/09 09:47:01;;;;;;;12.38;5.47;;;3.20;99.90;;;;;;5061079;28;20041;-84
2021/12/09 09:49:30;;;;;;;12.38;6.68;;;3.30;99.90;;;;;;5051948;28;20087;-84
2021/12/09 09:51:57;;;;;;;16.20;6.63;;;3.40;99.90;;;;;;5052496;28;20045;-85
2021/12/09 09:54:24;;;;;;;15.60;5.90;;;3.40;99.90;;;;;;5051939;28;20442;-84
2021/12/09 09:56:50;;;;;;;13.57;5.93;;;3.50;99.90;;;;;;5035957;28;20097;-84
2021/12/09 09:59:17;;;;;;;12.57;5.35;;;3.50;99.90;;;;;;5035260;28;20125;-84
2021/12/09 10:01:45;;;;;;;18.35;5.75;;;3.50;99.90;;;;;;5052156;28;20537;-84
2021/12/09 10:04:14;;;;;;;12.15;6.00;;;3.60;99.90;;;;;;5056954;28;20394;-85
2021/12/09 10:06:44;;;;;;;17.13;6.75;;;3.60;99.90;;;;;;5072581;28;20040;-84
2021/12/09 10:09:12;;;;;;;14.52;6.30;;;3.70;99.90;;;;;;5073667;28;20390;-84
2021/12/09 10:11:38;;;;;;;13.43;5.78;;;3.80;99.90;;;;;;5074712;28;20058;-84
2021/12/09 10:14:26;;;;;;;13.70;5.50;;;3.90;99.90;;;;;;5051946;28;20043;-84
2021/12/09 10:17:04;;;;;;;14.40;5.43;;;4.00;99.90;;;;;;5070551;28;20085;-85
2021/12/09 10:19:31;;;;;;;14.85;5.32;;;4.00;99.90;;;;;;5072491;28;20087;-84
2021/12/09 10:22:22;;;;;;;15.90;5.53;;;4.10;99.90;;;;;;5072154;28;20036;-85
2021/12/09 10:24:50;;;;;;;15.55;5.68;;;4.20;99.90;;;;;;5055703;28;20075;-85
2021/12/09 10:27:33;;;;;;;13.80;5.85;;;4.20;99.90;;;;;;5071930;28;20127;-84
2021/12/09 10:30:18;;;;;;;15.32;4.85;;;4.40;99.90;;;;;;5063740;28;20075;-84
2021/12/09 10:32:44;;;;;;;13.68;5.50;;;4.40;99.90;;;;;;5044734;28;20041;-84
2021/12/09 10:35:14;;;;;;;12.80;5.75;;;4.50;99.90;;;;;;5041909;28;20044;-85
2021/12/09 10:37:42;;;;;;;12.68;5.45;;;4.60;99.90;;;;;;5049169;28;20049;-85
2021/12/09 10:40:07;;;;;;;16.33;5.60;;;4.60;99.90;;;;;;5052313;28;20644;-85
2021/12/09 10:42:39;;;;;;;15.43;5.65;;;4.60;99.90;;;;;;5052422;28;20558;-85
2021/12/09 10:45:11;;;;;;;15.65;5.53;;;4.50;99.90;;;;;;5035107;28;20093;-84
2021/12/09 10:50:16;;;;;;;14.07;6.32;;;4.40;99.90;;;;;;5051969;28;20052;-85
2021/12/09 10:52:48;;;;;;;11.70;5.97;;;4.30;99.90;;;;;;5088605;28;20032;-85
2021/12/09 10:55:24;;;;;;;14.77;6.47;;;4.30;99.90;;;;;;5038351;28;20451;-84
2021/12/09 10:58:11;;;;;;;17.65;7.07;;;4.30;99.90;;;;;;5055302;28;20473;-84
2021/12/09 11:00:51;;;;;;;14.05;7.15;;;4.30;99.90;;;;;;5055845;28;20121;-85
2021/12/09 11:03:49;;;;;;;15.02;6.65;;;4.30;99.90;;;;;;5054780;28;20040;-85
2021/12/09 11:06:21;;;;;;;15.70;6.55;;;4.30;99.90;;;;;;5034820;28;20132;-85
2021/12/09 11:08:49;;;;;;;16.38;8.18;;;4.30;99.90;;;;;;5055622;28;20044;-85
2021/12/09 11:11:30;;;;;;;16.20;8.10;;;4.40;99.90;;;;;;5055784;28;20060;-85
2021/12/09 11:14:03;;;;;;;13.02;7.05;;;4.40;99.90;;;;;;5037717;28;20041;-84
2021/12/09 11:16:31;;;;;;;12.05;6.43;;;4.40;99.90;;;;;;5054669;28;20036;-85
2021/12/09 11:21:57;;;;;;;14.30;6.70;;;4.40;99.90;;;;;;5033649;28;20040;-85
2021/12/09 11:24:31;;;;;;;17.02;6.85;;;4.30;99.90;;;;;;5054900;28;20101;-85
2021/12/09 11:27:03;;;;;;;15.57;7.53;;;4.30;99.90;;;;;;5055220;28;20047;-85
2021/12/09 11:29:36;;;;;;;14.45;6.45;;;4.40;99.90;;;;;;5053033;28;20056;-85
2021/12/09 11:32:20;;;;;;;14.75;7.05;;;4.40;99.90;;;;;;5038690;28;20051;-85
2021/12/09 11:34:51;;;;;;;14.70;7.07;;;4.40;99.90;;;;;;5054625;28;20048;-85
2021/12/09 11:39:54;;;;;;;16.88;7.55;;;4.40;99.90;;;;;;5055358;28;20493;-85
2021/12/09 11:42:32;;;;;;;14.18;7.40;;;4.40;99.90;;;;;;5038886;28;20123;-85
2021/12/09 11:44:57;;;;;;;16.35;8.18;;;4.40;99.90;;;;;;5038138;28;20048;-85
2021/12/09 11:47:23;;;;;;;16.63;7.38;;;4.30;99.90;;;;;;5037854;28;20040;-85
2021/12/09 11:49:51;;;;;;;19.40;7.63;;;4.30;99.90;;;;;;5054682;28;20045;-85
2021/12/09 11:52:20;;;;;;;16.38;7.40;;;4.30;99.90;;;;;;5054470;28;20076;-85
2021/12/09 11:55:06;;;;;;;17.75;8.32;;;4.30;99.90;;;;;;5054631;28;20094;-85
2021/12/09 11:57:45;;;;;;;14.75;7.10;;;4.30;99.90;;;;;;5054015;28;20576;-85
2021/12/09 12:12:43;;;;;;;15.25;7.78;;;4.20;99.90;;;;;;5034791;28;20085;-85
2021/12/09 12:20:46;;;;;;;14.88;7.38;;;4.20;99.90;;;;;;5034450;28;20042;-85
2021/12/09 12:23:30;;;;;;;16.27;7.88;;;4.20;99.90;;;;;;5017577;28;20044;-85
2021/12/09 12:31:39;;;;;;;16.48;8.02;;;4.10;99.90;;;;;;5053564;28;20044;-85
2021/12/09 12:39:45;;;;;;;20.30;9.25;;;4.20;99.90;;;;;;5034388;28;20041;-85
2021/12/09 12:42:19;;;;;;;18.92;8.88;;;4.20;99.90;;;;;;5033520;28;20123;-85
2021/12/09 12:45:38;;;;;;;16.85;8.27;;;4.20;99.90;;;;;;5025259;28;20394;-85
2021/12/09 12:51:46;;;;;;;19.55;9.48;;;4.20;99.90;;;;;;5034540;28;20044;-85
2021/12/09 12:54:16;;;;;;;18.98;9.05;;;4.20;99.90;;;;;;5033835;28;20044;-85
2021/12/09 12:56:45;;;;;;;19.90;8.45;;;4.20;99.90;;;;;;5031629;28;20045;-85
2021/12/09 12:59:13;;;;;;;17.70;8.60;;;4.20;99.90;;;;;;5063772;28;20148;-85
2021/12/09 13:02:11;;;;;;;20.80;10.30;;;4.20;99.90;;;;;;5032982;28;20060;-86
2021/12/09 13:17:01;;;;;;;17.95;9.30;;;4.30;99.90;;;;;;5033318;28;20049;-85
2021/12/09 13:21:54;;;;;;;21.88;10.98;;;4.30;99.90;;;;;;5033833;28;20045;-85
2021/12/09 13:27:18;;;;;;;23.08;10.95;;;4.40;99.90;;;;;;5032224;28;20056;-85
2021/12/09 13:30:04;;;;;;;18.88;9.27;;;4.40;99.90;;;;;;5032970;28;20048;-85
2021/12/09 13:39:14;;;;;;;21.63;9.32;;;4.50;99.90;;;;;;4990580;28;20152;-86
2021/12/09 13:49:56;;;;;;;22.58;10.30;;;4.60;99.90;;;;;;5049183;28;20509;-85
2021/12/09 13:55:09;;;;;;;20.17;10.15;;;4.60;99.90;;;;;;5049172;28;20077;-85
2021/12/09 13:57:43;;;;;;;24.17;10.23;;;4.60;99.90;;;;;;5032660;28;20044;-85
2021/12/09 14:00:31;;;;;;;24.00;11.50;;;4.60;99.90;;;;;;5032999;28;20033;-85
2021/12/09 14:03:04;;;;;;;20.23;9.88;;;4.50;99.90;;;;;;5032469;28;20462;-86
2021/12/09 14:06:04;;;;;;;17.25;9.35;;;4.50;99.90;;;;;;5047653;28;20048;-85
2021/12/09 14:08:51;;;;;;;17.80;9.80;;;4.50;99.90;;;;;;5032394;28;20045;-85
2021/12/09 14:11:25;;;;;;;21.08;10.07;;;4.50;99.90;;;;;;5032238;28;20485;-85